Main page
METAR-TAF:

METAR-TAF

Airports :

Nawabshah Airport

Nawabshah, Pakistan

latitude: 26-15N, longitude: 068-22E, elevation: 37 m

Current weather observation

The report was made 31 minutes ago, at 03:00 UTC
Wind 2 kt from the Northeast
Temperature 31°C
Humidity 38%
Pressure 1000 hPa
Visibility: 4000 m
haze

METAR: OPNH 270300Z 04502KT 4000 HZ NSC 31/15 Q1000 NOSIG

Time: 08:31 (03:31 UTC)

Forecast

The report was made 6 hours and 1 minutes ago, at 21:30 UTC
Forecast valid from 27 at 00 UTC to 28 at 06 UTC
Wind 10 kt from the Northwest
Visibility: 5000 m
haze
Temporary
from 27 at 00 UTC to 27 at 04 UTC
Wind 8 kt from the Northwest
Visibility: 3000 m
haze
Becoming
from 27 at 19 UTC to 27 at 21 UTC
Wind 8 kt from the Southwest
Visibility: 4000 m
haze

TAF: OPNH 262130Z 2700/2806 31010KT 5000 HZ NSC TEMPO 2700/2704 31008KT 3000 HZ NSC BECMG 2719/2721 23008KT 4000 HZ NSC

Weather observations and forecasts of more than 4000 airports (METAR and TAF reports).

The available stations are represented by yellow and red dots on the map.

Hover mouse over dot to see the name of the station.

Then click to see weather observations and forecasts.

To change the map : click on the green buttons with a black cross to zoom in, on the green button with a dash to zoom out, or on the green arrows for adjacent maps.


METAR-TAF: